Archival Weather

Chicago O'Hare International

Chicago, Illinois (KORD)

Report from: Saturday, March 5, 2022 4:51 PM CST
Current time: Saturday, February 4, 2023 9:48 PM CST

Current weather
Weather history
Weather forecast

Temperature20.0°C (68.0°F)
Dew point10.6°C (51.1°F)
Winds 15 kts (7.7 m/s, 17.3 mph) South (190°)
Wind gusts 27 kts (13.9 m/s, 31.1 mph)
Peak wind 27 kts (13.9 m/s, 31.1 mph) South (180°) at 16:45
Visibility10 mi. (16.1 km)
Clouds Few clouds 6,000 ft. (1,829 m)
Scattered clouds 9,500 ft. (2,896 m)
Altimeter29.69 in.Hg (1005 mB)
Relative humidity55 %
Density altitude1,031 ft. (314 m)
Sea-level pressure100.5 kPa (1005 mB, 29.68 in.Hg)
Remarks System requires maintenance
Automated weather observing station with precipitation discriminator
Flight conditions Visual Meteorological Conditions
Raw dataKORD 052251Z 19015G27KT 10SM FEW060 SCT095 20/11 A2969 RMK AO2 PK WND 18027/2245 SLP052 T02000106 $
An unhandled exception has occurred. See browser dev tools for details. Reload 🗙